Time;durP1;ratioP1;P1;durP2;ratioP2;P2;SDS_P1;SDS_P2;PMS_P1;PMS_P2;Temp;Humidity;BMP_temperature;BMP_pressure;BME280_temperature;BME280_humidity;BME280_pressure;Samples;Min_cycle;Max_cycle;Signal;HPM_P1;HPM_P2
2022/04/25 00:01:03;;;;;;;23.45;9.45;;;;;;;12.88;62.80;92788.13;5113182;28;20031;-36
2022/04/25 00:03:29;;;;;;;24.60;7.38;;;;;;;12.83;62.77;92784.31;5113103;28;20060;-35
2022/04/25 00:05:55;;;;;;;25.30;9.48;;;;;;;12.82;63.79;92791.16;5108592;28;20020;-36
2022/04/25 00:08:21;;;;;;;25.65;10.57;;;;;;;12.57;63.62;92793.41;5092731;28;20103;-36
2022/04/25 00:10:46;;;;;;;21.88;9.57;;;;;;;12.51;64.06;92800.53;5092935;28;20035;-35
2022/04/25 00:13:14;;;;;;;15.77;8.02;;;;;;;12.52;64.81;92788.88;5098077;28;20390;-35
2022/04/25 00:15:42;;;;;;;18.15;8.05;;;;;;;12.39;64.08;92802.38;5093642;28;20521;-35
2022/04/25 00:18:08;;;;;;;26.75;9.70;;;;;;;12.45;65.09;92786.94;5092648;28;20031;-35
2022/04/25 00:20:34;;;;;;;26.55;9.57;;;;;;;12.37;64.48;92788.34;5092546;28;20032;-35
2022/04/25 00:23:04;;;;;;;25.35;8.65;;;;;;;12.28;65.35;92792.56;5092685;28;20024;-35
2022/04/25 00:25:34;;;;;;;21.50;6.68;;;;;;;12.27;65.25;92793.13;5092777;28;20621;-35
2022/04/25 00:28:00;;;;;;;22.77;6.70;;;;;;;12.10;65.26;92774.56;5092698;28;20024;-35
2022/04/25 00:30:26;;;;;;;20.50;7.53;;;;;;;12.33;64.94;92793.59;5092369;28;20024;-35
2022/04/25 00:32:52;;;;;;;17.30;6.85;;;;;;;12.23;65.50;92790.06;5092199;28;20027;-36
2022/04/25 00:35:18;;;;;;;23.85;8.15;;;;;;;12.13;65.72;92799.03;5092602;28;20024;-35
2022/04/25 00:37:43;;;;;;;42.55;12.20;;;;;;;12.00;66.63;92790.38;5092533;28;20027;-36
2022/04/25 00:40:09;;;;;;;25.73;9.55;;;;;;;11.98;65.86;92795.75;5092094;28;20081;-36
2022/04/25 00:42:36;;;;;;;18.05;7.60;;;;;;;11.74;66.85;92794.56;5091981;28;20020;-35
2022/04/25 00:45:01;;;;;;;24.63;9.32;;;;;;;11.79;66.82;92796.38;5096317;28;20072;-36
2022/04/25 00:47:27;;;;;;;23.38;7.47;;;;;;;11.84;67.25;92789.13;5101635;28;20031;-35
2022/04/25 00:49:52;;;;;;;18.88;7.18;;;;;;;11.89;66.75;92786.09;5100586;28;20035;-36
2022/04/25 00:52:18;;;;;;;16.65;6.90;;;;;;;11.89;67.63;92790.91;5102787;28;20024;-35
2022/04/25 00:54:44;;;;;;;14.15;7.47;;;;;;;11.95;67.05;92791.38;5104494;28;20019;-37
2022/04/25 00:57:09;;;;;;;20.38;8.18;;;;;;;11.82;66.42;92786.94;5099489;28;20097;-37
2022/04/25 00:59:35;;;;;;;15.75;6.25;;;;;;;11.65;66.70;92786.19;5109093;28;20405;-36
2022/04/25 01:02:00;;;;;;;20.35;7.15;;;;;;;11.51;67.69;92787.81;5100031;28;20030;-37
2022/04/25 01:04:26;;;;;;;16.70;7.32;;;;;;;11.65;67.06;92789.69;5102392;28;20024;-37
2022/04/25 01:06:52;;;;;;;25.42;7.47;;;;;;;11.54;67.88;92792.97;5103346;28;20519;-37
2022/04/25 01:09:17;;;;;;;15.05;6.35;;;;;;;11.51;68.04;92783.03;5102654;28;20015;-37
2022/04/25 01:11:42;;;;;;;21.90;6.00;;;;;;;11.49;67.90;92771.09;5099989;28;20398;-37
2022/04/25 01:14:19;;;;;;;13.45;5.43;;;;;;;11.67;67.07;92784.34;5100801;28;20432;-37
2022/04/25 01:16:45;;;;;;;16.45;6.30;;;;;;;11.57;67.82;92789.03;5100475;28;20097;-37
2022/04/25 01:19:11;;;;;;;23.95;6.28;;;;;;;11.53;68.06;92774.91;5099579;28;20079;-37
2022/04/25 01:21:52;;;;;;;17.70;6.53;;;;;;;11.59;67.83;92791.22;5103171;28;20057;-37
2022/04/25 01:27:17;;;;;;;20.38;6.40;;;;;;;11.56;67.76;92784.09;5100423;28;20421;-36
2022/04/25 01:29:52;;;;;;;20.98;6.53;;;;;;;11.43;67.69;92787.94;5095409;28;20016;-36
2022/04/25 01:32:20;;;;;;;16.30;7.55;;;;;;;11.35;68.39;92793.53;5100412;28;20072;-37
2022/04/25 01:34:46;;;;;;;22.70;8.02;;;;;;;11.39;67.39;92768.25;5100824;28;20024;-36
2022/04/25 01:37:13;;;;;;;29.40;7.32;;;;;;;11.28;68.61;92785.34;5105899;28;20020;-36
2022/04/25 01:39:56;;;;;;;18.85;6.03;;;;;;;11.31;68.72;92789.72;5101723;28;20072;-36
2022/04/25 01:42:22;;;;;;;21.23;6.97;;;;;;;11.28;69.22;92785.34;5101040;28;20107;-36
2022/04/25 01:44:48;;;;;;;23.20;9.45;;;;;;;11.35;69.30;92784.50;5099639;28;21381;-37
2022/04/25 01:47:14;;;;;;;38.15;12.77;;;;;;;11.40;68.85;92789.06;5099573;28;20417;-36
2022/04/25 01:49:39;;;;;;;28.95;9.25;;;;;;;11.33;68.74;92787.84;5101191;28;20032;-36
2022/04/25 01:52:34;;;;;;;22.85;7.53;;;;;;;11.46;68.66;92783.31;5100646;28;20023;-36
2022/04/25 01:55:01;;;;;;;22.25;8.52;;;;;;;11.33;69.23;92784.34;5096479;28;20024;-36
2022/04/25 01:57:27;;;;;;;27.52;9.45;;;;;;;11.40;69.00;92784.28;5090616;28;20081;-36
2022/04/25 01:59:52;;;;;;;29.27;8.35;;;;;;;11.41;68.34;92782.94;5090793;28;20016;-36
2022/04/25 02:02:18;;;;;;;23.75;7.72;;;;;;;11.31;68.06;92786.94;5110744;28;20493;-35
2022/04/25 02:04:43;;;;;;;17.05;6.72;;;;;;;11.34;67.46;92772.75;5109593;28;20024;-35
2022/04/25 02:07:10;;;;;;;17.75;6.38;;;;;;;11.34;67.40;92769.97;5100359;28;20734;-35
2022/04/25 02:09:37;;;;;;;20.13;6.85;;;;;;;11.17;67.84;92763.72;5090522;28;20526;-35
2022/04/25 02:12:03;;;;;;;23.30;7.00;;;;;;;11.06;68.77;92764.94;5090176;28;20032;-36
2022/04/25 02:14:29;;;;;;;19.13;5.90;;;;;;;10.98;69.09;92764.25;5106598;28;20095;-35
2022/04/25 02:16:58;;;;;;;15.70;7.88;;;;;;;11.07;69.30;92771.19;5109890;28;20131;-35
2022/04/25 02:19:24;;;;;;;20.20;8.07;;;;;;;11.08;69.44;92761.59;5111029;28;20046;-36
2022/04/25 02:21:50;;;;;;;21.92;8.50;;;;;;;11.01;70.02;92752.09;5110682;28;20031;-36
2022/04/25 02:24:15;;;;;;;23.27;7.50;;;;;;;11.05;69.34;92752.41;5110460;28;20023;-36
2022/04/25 02:26:40;;;;;;;18.45;8.10;;;;;;;10.99;69.55;92748.44;5110717;28;20020;-36
2022/04/25 02:29:06;;;;;;;19.10;7.47;;;;;;;10.97;70.03;92745.50;5108786;28;20020;-35
2022/04/25 02:31:31;;;;;;;18.58;7.93;;;;;;;10.92;70.25;92743.72;5098563;28;20051;-36
2022/04/25 02:33:57;;;;;;;16.33;8.10;;;;;;;10.97;70.10;92743.50;5099655;28;20446;-36
2022/04/25 02:36:23;;;;;;;17.33;7.28;;;;;;;10.86;70.04;92734.94;5099678;28;20028;-36
2022/04/25 02:38:49;;;;;;;18.67;7.38;;;;;;;10.79;70.10;92713.66;5107156;28;20096;-35
2022/04/25 02:41:15;;;;;;;15.32;7.15;;;;;;;10.80;70.38;92737.22;5110702;28;20468;-36
2022/04/25 02:43:42;;;;;;;20.55;7.10;;;;;;;10.84;70.65;92716.19;5110431;28;20020;-36
2022/04/25 02:46:10;;;;;;;14.07;6.40;;;;;;;10.92;70.94;92705.03;5109266;28;20500;-36
2022/04/25 02:48:36;;;;;;;23.95;7.10;;;;;;;10.89;71.32;92708.97;5110615;28;20034;-36
2022/04/25 02:51:06;;;;;;;18.15;5.85;;;;;;;10.84;71.79;92709.94;5110495;28;20027;-36
2022/04/25 02:53:32;;;;;;;27.35;6.03;;;;;;;10.81;71.19;92703.50;5110684;28;20425;-36
2022/04/25 02:55:58;;;;;;;18.83;6.78;;;;;;;10.88;71.33;92716.50;5110445;28;20024;-36
2022/04/25 02:58:24;;;;;;;20.45;7.43;;;;;;;10.83;71.32;92727.81;5110213;28;20026;-36
2022/04/25 03:00:50;;;;;;;18.52;7.50;;;;;;;10.62;71.72;92725.41;5110207;28;20024;-36
2022/04/25 03:03:17;;;;;;;20.27;7.85;;;;;;;10.71;71.47;92733.06;5100914;28;20107;-35
2022/04/25 03:05:47;;;;;;;19.98;7.38;;;;;;;10.80;70.75;92723.41;5092992;28;20035;-35
2022/04/25 03:08:14;;;;;;;19.60;7.45;;;;;;;10.82;70.91;92737.38;5109949;28;20024;-35
2022/04/25 03:10:42;;;;;;;16.27;6.65;;;;;;;10.74;71.52;92740.22;5110502;28;20723;-35
2022/04/25 03:13:09;;;;;;;13.35;6.18;;;;;;;10.79;71.21;92736.47;5106765;28;20012;-35
2022/04/25 03:15:38;;;;;;;20.77;6.63;;;;;;;10.85;71.59;92728.69;5110144;28;20456;-35
2022/04/25 03:18:04;;;;;;;12.45;5.65;;;;;;;10.79;72.22;92721.94;5110432;28;20027;-35
2022/04/25 03:20:31;;;;;;;14.48;5.72;;;;;;;10.78;72.25;92712.19;5110100;28;20031;-35
2022/04/25 03:22:58;;;;;;;16.67;6.25;;;;;;;10.89;72.55;92706.94;5109619;28;20049;-35
2022/04/25 03:25:24;;;;;;;20.27;6.20;;;;;;;11.04;71.38;92708.78;5109459;28;20021;-35
2022/04/25 03:27:50;;;;;;;22.10;5.80;;;;;;;11.08;71.61;92701.56;5110867;28;20441;-35
2022/04/25 03:30:16;;;;;;;19.00;6.32;;;;;;;10.97;71.62;92709.59;5113994;28;20414;-35
2022/04/25 03:32:45;;;;;;;16.42;6.43;;;;;;;10.88;71.97;92701.97;5113848;28;20020;-35
2022/04/25 03:35:13;;;;;;;23.13;7.10;;;;;;;10.95;72.19;92698.41;5113937;28;20100;-35
2022/04/25 03:37:40;;;;;;;20.20;6.43;;;;;;;10.99;72.26;92707.75;5114051;28;20046;-35
2022/04/25 03:40:08;;;;;;;15.43;6.47;;;;;;;10.87;72.64;92692.94;5112787;28;20400;-35
2022/04/25 03:42:34;;;;;;;19.70;5.50;;;;;;;11.01;72.26;92709.91;5108709;28;20102;-35
2022/04/25 03:45:00;;;;;;;17.23;6.13;;;;;;;11.13;71.97;92710.91;5113220;27;20106;-35
2022/04/25 03:47:26;;;;;;;22.48;6.72;;;;;;;11.13;72.08;92710.91;5113469;28;20026;-35
2022/04/25 03:49:52;;;;;;;19.27;6.43;;;;;;;11.13;71.64;92708.16;5113817;28;20031;-35
2022/04/25 03:52:17;;;;;;;40.15;9.02;;;;;;;11.10;71.82;92709.28;5106737;28;20405;-35
2022/04/25 03:57:27;;;;;;;18.45;5.70;;;;;;;11.16;72.14;92715.28;5113691;28;20421;-35
2022/04/25 03:59:53;;;;;;;24.20;8.23;;;;;;;11.09;72.13;92721.59;5113253;28;20479;-35
2022/04/25 04:02:18;;;;;;;21.42;6.47;;;;;;;11.02;71.85;92705.88;5113409;28;20156;-35
2022/04/25 04:04:44;;;;;;;19.42;7.93;;;;;;;11.14;72.03;92729.66;5113097;28;20416;-36
2022/04/25 04:07:09;;;;;;;20.45;5.82;;;;;;;11.09;72.65;92729.91;5098253;28;20023;-36
2022/04/25 04:09:47;;;;;;;11.98;4.95;;;;;;;11.22;72.17;92746.16;5092796;28;20028;-36
2022/04/25 04:12:17;;;;;;;16.10;7.07;;;;;;;11.20;72.42;92754.28;5092631;28;20034;-36
2022/04/25 04:14:43;;;;;;;17.90;5.60;;;;;;;11.25;72.27;92767.84;5095396;28;20032;-36
2022/04/25 04:17:09;;;;;;;17.33;6.18;;;;;;;11.24;72.74;92768.44;5092887;28;20034;-36
2022/04/25 04:19:35;;;;;;;16.25;6.38;;;;;;;11.47;72.53;92768.91;5095843;28;20098;-36
2022/04/25 04:22:02;;;;;;;20.98;6.03;;;;;;;11.32;72.26;92756.00;5112964;28;20032;-36
2022/04/25 04:24:28;;;;;;;20.00;5.93;;;;;;;11.61;71.58;92781.06;5112633;27;20034;-36
2022/04/25 04:26:55;;;;;;;19.38;6.05;;;;;;;11.80;70.76;92780.50;5113152;28;20402;-36
2022/04/25 04:29:21;;;;;;;21.40;4.72;;;;;;;12.06;69.55;92768.72;5112758;27;20033;-36
2022/04/25 04:31:46;;;;;;;18.95;5.15;;;;;;;12.01;69.94;92775.97;5113034;28;20020;-36
2022/04/25 04:34:12;;;;;;;19.95;4.88;;;;;;;12.24;69.10;92774.91;5112075;28;20420;-35
2022/04/25 04:36:38;;;;;;;22.17;4.75;;;;;;;12.30;69.40;92778.16;5112111;28;20549;-35
2022/04/25 04:39:04;;;;;;;23.90;6.63;;;;;;;12.27;69.98;92780.03;5112317;28;20028;-35
2022/04/25 04:41:29;;;;;;;17.70;5.03;;;;;;;12.42;70.01;92770.75;5112063;28;20089;-35
2022/04/25 04:43:57;;;;;;;16.52;4.95;;;;;;;12.58;69.61;92775.47;5112645;28;20024;-35
2022/04/25 04:46:23;;;;;;;15.30;5.68;;;;;;;12.73;69.45;92783.53;5112307;28;20549;-35
2022/04/25 04:48:49;;;;;;;17.35;5.47;;;;;;;12.94;68.69;92777.47;5112341;28;20027;-35
2022/04/25 04:51:14;;;;;;;34.97;17.25;;;;;;;13.26;68.36;92771.56;5112310;28;20027;-35
2022/04/25 04:53:40;;;;;;;48.45;27.30;;;;;;;13.43;67.82;92785.28;5112343;28;20107;-35
2022/04/25 04:56:05;;;;;;;52.50;30.80;;;;;;;13.66;66.62;92782.78;5105814;28;20040;-36
2022/04/25 04:58:31;;;;;;;39.88;22.08;;;;;;;13.93;65.30;92777.06;5112391;28;20020;-36
2022/04/25 05:00:57;;;;;;;30.00;16.52;;;;;;;13.78;64.85;92771.84;5112361;28;20027;-36
2022/04/25 05:03:25;;;;;;;52.05;30.20;;;;;;;13.93;63.45;92779.13;5112005;28;20024;-36
2022/04/25 05:05:53;;;;;;;31.50;15.00;;;;;;;13.98;63.81;92776.06;5108251;28;20470;-36
2022/04/25 05:08:19;;;;;;;40.22;25.50;;;;;;;14.06;64.66;92773.84;5095119;28;20453;-36
2022/04/25 05:10:44;;;;;;;31.77;11.57;;;;;;;14.31;62.98;92760.34;5112187;28;20095;-36
2022/04/25 05:13:11;;;;;;;20.08;7.55;;;;;;;14.50;62.43;92775.50;5108625;28;20463;-36
2022/04/25 05:15:37;;;;;;;24.27;7.63;;;;;;;14.77;62.93;92779.47;5111800;28;20432;-36
2022/04/25 05:18:02;;;;;;;29.13;8.70;;;;;;;14.97;61.38;92777.31;5112160;28;20019;-36
2022/04/25 05:20:29;;;;;;;35.78;8.18;;;;;;;15.06;62.14;92782.84;5111637;28;20480;-36
2022/04/25 05:22:55;;;;;;;32.40;7.88;;;;;;;15.28;60.48;92782.84;5108577;28;20115;-36
2022/04/25 05:25:23;;;;;;;19.50;8.20;;;;;;;15.67;60.13;92787.56;5109422;28;20024;-36
2022/04/25 05:27:50;;;;;;;22.65;6.90;;;;;;;15.93;58.79;92791.31;5112029;28;20101;-37
2022/04/25 05:30:17;;;;;;;24.10;7.78;;;;;;;15.93;57.95;92763.47;5100913;28;20122;-36
2022/04/25 05:32:47;;;;;;;19.73;5.07;;;;;;;16.32;56.23;92780.50;5104197;28;20114;-36
2022/04/25 05:35:14;;;;;;;20.25;4.50;;;;;;;16.26;56.00;92792.03;5111721;28;20036;-37
2022/04/25 05:37:39;;;;;;;20.02;5.30;;;;;;;16.54;56.47;92793.06;5111418;28;20361;-36
2022/04/25 05:40:06;;;;;;;22.33;7.85;;;;;;;16.85;56.08;92785.19;5111296;28;20133;-36
2022/04/25 05:42:33;;;;;;;21.60;6.38;;;;;;;16.83;56.01;92787.16;5111162;28;20030;-36
2022/04/25 05:45:00;;;;;;;14.85;5.47;;;;;;;17.05;55.20;92791.25;5100222;28;20035;-37
2022/04/25 05:47:26;;;;;;;26.05;5.05;;;;;;;16.95;55.80;92793.44;5107967;28;20111;-37
2022/04/25 05:52:36;;;;;;;19.98;4.57;;;;;;;18.13;52.68;92794.78;5107372;28;20050;-37
2022/04/25 05:55:03;;;;;;;11.65;4.80;;;;;;;18.48;53.13;92802.28;5110989;28;20020;-37
2022/04/25 05:57:29;;;;;;;16.73;5.97;;;;;;;18.94;51.31;92799.19;5111030;28;20049;-37
2022/04/25 05:59:54;;;;;;;14.90;5.25;;;;;;;19.23;47.10;92796.50;5110946;28;20535;-37
2022/04/25 06:02:20;;;;;;;27.42;5.57;;;;;;;19.41;47.69;92783.47;5111173;28;20140;-37
2022/04/25 06:04:46;;;;;;;13.43;3.90;;;;;;;19.63;46.32;92786.69;5110759;28;20039;-36
2022/04/25 06:07:12;;;;;;;14.68;4.35;;;;;;;19.99;47.48;92784.97;5096316;28;20059;-37
2022/04/25 06:09:38;;;;;;;18.48;3.75;;;;;;;19.98;45.11;92787.03;5110844;28;20041;-38
2022/04/25 06:12:04;;;;;;;12.93;4.18;;;;;;;20.25;44.99;92775.75;5110743;28;20099;-38
2022/04/25 06:14:33;;;;;;;17.65;3.90;;;;;;;20.74;43.82;92781.56;5096628;28;20051;-37
2022/04/25 06:17:01;;;;;;;24.23;6.65;;;;;;;21.52;44.09;92778.75;5090479;28;20040;-38
2022/04/25 06:19:27;;;;;;;22.33;5.03;;;;;;;21.97;41.72;92775.00;5090409;28;20024;-38
2022/04/25 06:21:52;;;;;;;17.52;5.40;;;;;;;22.01;41.89;92775.91;5089176;28;20535;-36
2022/04/25 06:24:19;;;;;;;19.88;5.63;;;;;;;21.77;41.77;92764.34;5090416;28;20043;-37
2022/04/25 06:26:47;;;;;;;12.10;3.60;;;;;;;21.95;41.79;92766.50;5090261;28;20024;-37
2022/04/25 06:29:12;;;;;;;16.50;4.53;;;;;;;22.56;40.10;92768.28;5090220;28;20020;-37
2022/04/25 06:31:38;;;;;;;15.23;4.18;;;;;;;22.75;40.02;92771.81;5090277;28;20600;-37
2022/04/25 06:34:03;;;;;;;18.13;4.50;;;;;;;23.18;38.89;92766.41;5091211;28;20022;-37
2022/04/25 06:36:29;;;;;;;17.60;4.65;;;;;;;23.74;40.08;92762.06;5090481;28;20057;-37
2022/04/25 06:38:54;;;;;;;17.33;3.63;;;;;;;24.63;37.65;92760.09;5090412;28;20024;-37
2022/04/25 06:41:21;;;;;;;39.40;6.00;;;;;;;25.39;35.76;92756.03;5090364;28;20028;-37
2022/04/25 06:43:46;;;;;;;13.52;3.50;;;;;;;26.06;34.72;92752.91;5090019;28;20494;-37
2022/04/25 06:46:12;;;;;;;34.42;5.38;;;;;;;26.38;32.90;92748.09;5098795;28;20039;-36
2022/04/25 06:48:38;;;;;;;16.42;3.45;;;;;;;27.17;31.87;92753.47;5110615;28;20114;-38
2022/04/25 06:51:03;;;;;;;17.83;4.53;;;;;;;28.05;31.19;92751.72;5110665;28;20549;-36
2022/04/25 06:53:29;;;;;;;14.70;3.90;;;;;;;28.80;28.58;92758.69;5101289;28;20103;-36
2022/04/25 06:55:54;;;;;;;24.35;4.53;;;;;;;29.03;26.90;92751.94;5095261;28;20028;-36
2022/04/25 06:58:20;;;;;;;12.77;3.75;;;;;;;28.46;26.45;92758.81;5108856;28;20019;-36
2022/04/25 07:00:47;;;;;;;22.90;3.88;;;;;;;28.43;26.76;92755.25;5108963;28;20019;-34
2022/04/25 07:03:12;;;;;;;19.33;3.60;;;;;;;27.10;27.72;92748.34;5111665;28;20038;-38
2022/04/25 07:05:38;;;;;;;18.38;4.10;;;;;;;27.63;26.46;92748.81;5112014;28;20019;-37
2022/04/25 07:08:04;;;;;;;23.50;4.50;;;;;;;28.24;26.60;92744.97;5093889;28;20081;-39
2022/04/25 07:10:29;;;;;;;25.55;3.35;;;;;;;28.87;25.33;92734.66;5095384;28;20100;-37
2022/04/25 07:12:56;;;;;;;21.90;3.90;;;;;;;29.65;25.48;92741.41;5112401;28;20022;-35
2022/04/25 07:15:23;;;;;;;17.23;4.10;;;;;;;29.73;24.86;92744.38;5097280;28;20055;-36
2022/04/25 07:17:55;;;;;;;17.10;3.72;;;;;;;30.89;23.41;92738.41;5093989;28;20028;-35
2022/04/25 07:20:24;;;;;;;14.35;3.72;;;;;;;31.77;23.43;92746.06;5093536;28;20028;-35
2022/04/25 07:31:01;;;;;;;20.65;3.17;;;;;;;31.90;19.44;92744.66;5093808;28;20092;-35
2022/04/25 07:33:27;;;;;;;20.00;4.63;;;;;;;31.38;19.41;92742.28;5093469;28;20028;-35
2022/04/25 07:35:53;;;;;;;19.63;4.15;;;;;;;29.98;20.49;92746.09;5093439;28;20085;-35
2022/04/25 07:38:19;;;;;;;21.98;4.03;;;;;;;29.91;20.63;92747.41;5093554;28;20023;-34
2022/04/25 07:40:45;;;;;;;29.92;3.67;;;;;;;31.18;19.13;92745.72;5101140;28;20457;-37
2022/04/25 07:43:11;;;;;;;22.27;4.45;;;;;;;31.73;19.01;92746.72;5112915;28;20500;-36
2022/04/25 07:45:36;;;;;;;21.02;3.80;;;;;;;31.92;18.54;92753.94;5101363;28;20027;-37
2022/04/25 07:48:02;;;;;;;28.98;4.18;;;;;;;32.57;17.93;92754.16;5106392;28;20052;-37
2022/04/25 07:50:28;;;;;;;27.27;3.58;;;;;;;33.89;17.69;92746.84;5110010;28;20488;-37
2022/04/25 07:52:53;;;;;;;24.40;4.05;;;;;;;34.22;16.94;92743.09;5106374;28;20019;-37
2022/04/25 07:55:19;;;;;;;23.83;3.75;;;;;;;34.18;16.76;92754.59;5098948;28;20059;-37
2022/04/25 07:57:45;;;;;;;26.67;4.57;;;;;;;34.30;16.36;92759.56;5092191;28;20032;-37
2022/04/25 08:00:11;;;;;;;21.08;3.58;;;;;;;34.60;17.24;92752.94;5093223;28;20028;-37
2022/04/25 08:02:36;;;;;;;21.73;4.00;;;;;;;34.50;17.04;92738.66;5092834;28;20098;-36
2022/04/25 08:05:02;;;;;;;23.65;3.33;;;;;;;35.11;15.99;92739.63;5091967;28;20032;-37
2022/04/25 08:07:29;;;;;;;22.75;4.50;;;;;;;35.62;16.44;92743.47;5107408;28;20039;-37
2022/04/25 08:09:55;;;;;;;18.45;3.33;;;;;;;35.35;14.78;92739.41;5111781;28;20020;-37
2022/04/25 08:18:01;;;;;;;22.52;3.45;;;;;;;33.87;15.90;92735.38;5113053;28;20030;-37
2022/04/25 08:20:35;;;;;;;19.55;3.53;;;;;;;35.22;15.58;92723.75;5112905;28;20111;-37
2022/04/25 08:23:01;;;;;;;23.60;4.22;;;;;;;35.78;16.63;92726.03;5113112;28;20088;-37
2022/04/25 08:25:30;;;;;;;23.38;3.78;;;;;;;35.67;16.36;92721.84;5113102;28;20066;-37
2022/04/25 08:27:56;;;;;;;24.77;3.58;;;;;;;35.70;16.28;92726.13;5112758;28;20574;-37
2022/04/25 08:30:22;;;;;;;20.20;3.90;;;;;;;36.05;14.48;92726.47;5112949;28;20487;-37
2022/04/25 08:32:47;;;;;;;17.38;3.70;;;;;;;35.57;13.56;92716.25;5112761;28;20029;-37
2022/04/25 08:35:14;;;;;;;14.30;3.10;;;;;;;34.72;15.29;92724.16;5112788;28;20382;-36
2022/04/25 08:37:40;;;;;;;24.00;3.95;;;;;;;34.39;14.07;92726.53;5112701;28;20030;-36
2022/04/25 08:40:06;;;;;;;24.27;4.03;;;;;;;34.22;15.51;92725.91;5112543;28;20031;-36
2022/04/25 08:42:32;;;;;;;25.15;4.97;;;;;;;33.67;16.46;92726.88;5112715;28;20032;-37
2022/04/25 08:44:58;;;;;;;24.13;4.35;;;;;;;34.61;14.91;92719.97;5099351;28;20418;-37
2022/04/25 08:47:29;;;;;;;15.55;3.72;;;;;;;34.70;15.34;92710.56;5091121;28;20024;-37
2022/04/25 08:49:57;;;;;;;20.40;3.35;;;;;;;34.58;15.68;92707.78;5092049;28;20027;-37
2022/04/25 08:52:23;;;;;;;28.35;4.22;;;;;;;35.64;15.69;92720.47;5091753;28;20036;-37
2022/04/25 08:54:49;;;;;;;21.25;4.25;;;;;;;36.33;14.97;92720.34;5091909;28;20111;-37
2022/04/25 08:57:17;;;;;;;21.70;3.88;;;;;;;36.63;13.73;92709.84;5090626;28;20024;-39
2022/04/25 08:59:43;;;;;;;28.40;5.33;;;;;;;36.14;12.15;92696.16;5092122;28;20038;-39
2022/04/25 09:02:10;;;;;;;20.75;4.10;;;;;;;35.68;14.56;92720.44;5103526;28;20028;-39
2022/04/25 09:04:36;;;;;;;28.90;4.30;;;;;;;36.02;14.07;92712.88;5111861;28;20031;-37
2022/04/25 09:07:02;;;;;;;23.50;4.57;;;;;;;36.41;13.11;92702.25;5098223;27;20028;-37
2022/04/25 09:09:27;;;;;;;42.70;6.20;;;;;;;36.21;13.11;92702.53;5090707;28;20543;-36
2022/04/25 09:12:13;;;;;;;18.55;4.25;;;;;;;36.43;12.93;92705.13;5091848;28;20024;-37
2022/04/25 09:14:41;;;;;;;24.90;4.30;;;;;;;36.75;13.14;92706.81;5107958;28;20034;-39
2022/04/25 09:17:07;;;;;;;23.87;6.00;;;;;;;36.08;13.71;92707.03;5110911;28;20027;-39
2022/04/25 09:19:34;;;;;;;22.42;4.57;;;;;;;36.25;12.87;92708.25;5111810;28;20414;-39
2022/04/25 09:21:59;;;;;;;23.90;4.65;;;;;;;35.69;14.68;92718.97;5112010;27;20039;-39
2022/04/25 09:24:32;;;;;;;28.60;4.15;;;;;;;36.14;14.05;92706.94;5111640;28;20531;-39
2022/04/25 09:27:07;;;;;;;21.95;4.30;;;;;;;36.66;13.94;92711.97;5111341;28;20041;-36
2022/04/25 09:29:33;;;;;;;20.63;3.28;;;;;;;36.06;14.79;92699.13;5111912;28;20028;-36
2022/04/25 09:31:59;;;;;;;25.00;3.72;;;;;;;36.10;13.95;92701.97;5111538;28;20606;-36
2022/04/25 09:37:09;;;;;;;33.38;4.80;;;;;;;37.05;13.73;92700.56;5091265;28;20538;-36
2022/04/25 09:39:34;;;;;;;50.72;5.45;;;;;;;36.74;13.73;92702.50;5090938;28;20024;-37
2022/04/25 09:42:00;;;;;;;21.95;3.42;;;;;;;35.84;15.20;92696.53;5110637;28;20032;-37
2022/04/25 09:44:28;;;;;;;17.75;4.43;;;;;;;35.63;14.22;92701.81;5111438;28;20028;-36
2022/04/25 09:46:54;;;;;;;26.50;3.87;;;;;;;35.42;13.41;92699.88;5111268;28;20107;-39
2022/04/25 09:49:23;;;;;;;24.67;4.22;;;;;;;34.34;14.79;92705.06;5111198;28;20482;-39
2022/04/25 09:52:04;;;;;;;23.30;3.38;;;;;;;34.59;14.12;92702.78;5111239;28;20031;-39
2022/04/25 09:54:30;;;;;;;26.00;4.10;;;;;;;35.03;14.90;92703.13;5104854;28;20092;-39
2022/04/25 09:56:56;;;;;;;22.08;3.63;;;;;;;35.24;13.84;92705.81;5110450;28;20034;-39
2022/04/25 09:59:22;;;;;;;19.25;3.70;;;;;;;35.85;14.97;92709.44;5100907;28;20027;-39
2022/04/25 10:02:09;;;;;;;18.38;3.38;;;;;;;36.14;15.39;92698.31;5105611;28;20067;-36
2022/04/25 10:04:36;;;;;;;16.02;4.18;;;;;;;34.91;13.03;92702.50;5107764;28;20092;-36
2022/04/25 10:07:04;;;;;;;18.17;3.13;;;;;;;35.25;14.60;92702.22;5108099;28;20034;-39
2022/04/25 10:09:31;;;;;;;17.75;3.63;;;;;;;35.62;13.24;92697.53;5110016;28;20020;-39
2022/04/25 10:12:05;;;;;;;38.47;5.18;;;;;;;35.41;14.01;92693.41;5110187;28;20034;-39
2022/04/25 10:14:30;;;;;;;27.27;3.60;;;;;;;35.78;12.96;92693.72;5106145;28;20447;-36
2022/04/25 10:16:57;;;;;;;14.30;3.22;;;;;;;35.86;15.12;92695.81;5108770;28;20047;-37
2022/04/25 10:19:26;;;;;;;18.75;3.28;;;;;;;34.75;14.23;92696.91;5109145;28;20020;-39
2022/04/25 10:21:53;;;;;;;17.13;3.15;;;;;;;34.39;15.61;92700.03;5109135;28;20019;-39
2022/04/25 10:24:19;;;;;;;17.13;3.63;;;;;;;34.20;16.15;92685.81;5108785;28;20031;-39
2022/04/25 10:26:50;;;;;;;17.67;3.35;;;;;;;34.21;16.99;92704.44;5108541;28;20028;-39
2022/04/25 10:29:24;;;;;;;17.83;2.90;;;;;;;34.11;14.14;92693.03;5109252;28;20023;-39
2022/04/25 10:31:50;;;;;;;14.82;3.75;;;;;;;34.24;15.07;92696.53;5107710;28;20023;-39
2022/04/25 10:34:16;;;;;;;25.13;3.22;;;;;;;32.48;16.01;92687.69;5107721;28;20107;-39
2022/04/25 10:36:46;;;;;;;21.88;4.55;;;;;;;32.63;17.05;92697.69;5101201;28;20048;-39
2022/04/25 10:39:19;;;;;;;15.32;2.75;;;;;;;33.86;18.30;92691.72;5089827;28;20032;-39
2022/04/25 10:44:50;;;;;;;21.67;3.35;;;;;;;35.25;16.56;92684.97;5090162;28;20114;-39
2022/04/25 10:47:18;;;;;;;19.67;3.50;;;;;;;35.70;14.69;92694.56;5089984;28;20032;-39
2022/04/25 10:49:56;;;;;;;13.63;2.85;;;;;;;35.85;13.63;92700.09;5090417;28;20487;-39
2022/04/25 10:55:30;;;;;;;12.93;2.50;;;;;;;35.01;15.47;92688.09;5090288;28;20032;-39
2022/04/25 10:58:01;;;;;;;13.60;3.30;;;;;;;35.43;13.19;92686.94;5090364;28;20115;-39
2022/04/25 11:03:05;;;;;;;21.75;3.45;;;;;;;34.47;13.37;92680.63;5090072;28;20093;-39
2022/04/25 11:05:30;;;;;;;14.77;2.85;;;;;;;34.22;14.98;92687.94;5091004;28;20047;-38
2022/04/25 11:08:24;;;;;;;13.93;2.70;;;;;;;33.98;16.20;92694.50;5110211;28;20027;-39
2022/04/25 11:10:59;;;;;;;23.25;4.30;;;;;;;34.35;15.54;92698.59;5110524;28;20023;-39
2022/04/25 11:13:28;;;;;;;20.58;3.38;;;;;;;33.83;16.12;92696.00;5110081;28;20046;-39
2022/04/25 11:16:09;;;;;;;19.98;3.05;;;;;;;32.84;14.79;92693.41;5110070;28;20572;-39
2022/04/25 11:18:37;;;;;;;14.15;2.78;;;;;;;33.15;14.74;92690.50;5110030;28;20436;-39
2022/04/25 11:21:16;;;;;;;21.88;3.00;;;;;;;32.08;16.35;92693.31;5109970;28;20073;-39
2022/04/25 11:23:44;;;;;;;19.17;2.55;;;;;;;31.09;15.94;92684.34;5110388;28;20032;-39
2022/04/25 11:26:25;;;;;;;13.07;2.90;;;;;;;31.34;17.44;92688.03;5110062;28;20036;-38
2022/04/25 11:28:58;;;;;;;11.93;2.40;;;;;;;31.86;14.90;92687.56;5110010;28;20480;-39
2022/04/25 11:31:29;;;;;;;28.67;3.55;;;;;;;31.15;18.30;92690.09;5110193;28;20404;-38
2022/04/25 11:34:02;;;;;;;19.33;2.90;;;;;;;30.99;16.49;92684.28;5094680;28;20096;-38
2022/04/25 11:36:30;;;;;;;14.13;2.17;;;;;;;30.42;16.97;92671.78;5088513;28;20117;-38
2022/04/25 11:41:41;;;;;;;15.52;3.03;;;;;;;30.51;19.98;92692.50;5088638;28;20046;-38
2022/04/25 11:44:07;;;;;;;12.55;2.80;;;;;;;31.00;18.51;92699.97;5088648;28;20028;-39
2022/04/25 11:46:34;;;;;;;16.90;2.83;;;;;;;31.05;18.62;92695.03;5088644;28;20060;-38
2022/04/25 11:49:00;;;;;;;8.23;2.17;;;;;;;30.93;18.11;92687.09;5089629;28;20027;-39
2022/04/25 11:51:28;;;;;;;13.25;2.85;;;;;;;30.55;18.47;92681.13;5092025;28;20077;-39
2022/04/25 11:53:55;;;;;;;15.23;3.53;;;;;;;30.24;18.17;92676.56;5091460;28;20040;-39
2022/04/25 11:56:23;;;;;;;13.13;3.55;;;;;;;30.41;18.63;92667.47;5091213;28;20071;-39
2022/04/25 11:58:52;;;;;;;20.73;3.13;;;;;;;30.64;18.08;92674.06;5091574;28;20023;-39
2022/04/25 12:01:48;;;;;;;13.45;2.78;;;;;;;30.86;17.32;92679.19;5091450;28;20032;-39